Flight Track Log - Related Links

Times and Time Zones

All times are in EDT time to prevent confusion due to time zone crossing. See the SAS443 flight status page for this flight to view local times or setup timezone preferences in your user account.

Time Position Orientation Groundspeed Altitude Reporting Facility
EDT Latitude Longitude Course Direction KTS MPH feet Rate Location/Type
Thu 04:14:00 AM 57.3844 12.3335 174° South  Level Estimated
Thu 04:15:00 AM 57.2915 12.3512 174° South  Level Estimated
Thu 04:16:00 AM 57.1987 12.3689 174° South  Level Estimated
Thu 04:17:00 AM 57.1059 12.3864 174° South  Level Estimated
Thu 04:18:00 AM 57.0131 12.4038 174° South  Level Estimated
Thu 04:19:00 AM 56.9202 12.4212 174° South  Level Estimated
Thu 04:20:00 AM 56.8274 12.4385 174° South  Level Estimated
Thu 04:21:00 AM 56.7345 12.4557 174° South  Level Estimated
Thu 04:22:00 AM 56.6417 12.4728 174° South  Level Estimated
Thu 04:23:00 AM 56.5488 12.4898 174° South  Level Estimated
Thu 04:24:00 AM 56.4560 12.5068 174° South  Level Estimated
Thu 04:25:00 AM 56.3631 12.5236 174° South  Level Estimated
Thu 04:26:00 AM 56.2703 12.5404 174° South  Level Estimated
Thu 04:27:00 AM 56.1774 12.5571 174° South  Level Estimated
Thu 04:28:00 AM 56.0846 12.5737 174° South  Level Estimated
Thu 04:29:00 AM 55.9569 12.5964 174° South  Level Estimated
Thu 04:30:00 AM 55.8292 12.6190 174° South  Level Estimated
Thu 04:31:00 AM 55.7015 12.6414 174° South  Level Estimated
Thu 04:32:00 AM 55.6179 12.6560 174° South  Level Estimated
Thu 04:33:00 AM 55.6179 12.6560 159° South  Level Estimated
Thu 04:34:00 AM 55.6179 12.6560 159° South  Level Estimated
Thu 04:35:00 AM 55.6179 12.6560 159° South  Level Estimated
Thu 04:36:00 AM 55.6179 12.6560 159° South  Level Estimated
Thu 04:37:00 AM 55.6179 12.6560 159° South  Level Estimated
Thu 04:38:00 AM 55.6179 12.6560 159° South  Level Estimated
Thu 04:39:00 AM 55.6179 12.6560 159° South  Level Estimated
Thu 04:40:00 AM 55.6179 12.6560 159° South  Level Estimated
Thu 04:41:00 AM 55.6179 12.6560 159° South  Level Estimated
Thu 04:42:00 AM 55.6179 12.6560 159° South  Level Estimated
Thu 04:43:00 AM 55.6179 12.6560 159° South  Level Estimated

Login

Don't have an account? Register now (free) for customized features, flight alerts, and more!